Maloy, Iowa
Current Conditions -  °F | °C
As of 2:35 PM on Monday 24 Nov 2014 (Local Time) from KCSQ Reporting Station
Overcast Overcast  
Wind Chill: 16°   Ceiling: 2200
Heat Index: 28°   Visibility: 10mi
Dew Point: 21°   Wind: 18mph
Humidity: 74%   Direction: 290°WNW
Pressure: 29.75"   Gusts: 28mph
Location:  40.6485°N, 94.5286°W
Report Text: KCSQ 242035Z AUTO 29016G24KT 10SM OVC022 M02/M06 A2975 RMK AO2
Loading
Personal Weather Stations






























Interactive Weather Map New forecast layout! Learn more

10-Day Weather Forecast

Advertisements
Track Severe Weather on mobile